sensor_id;sensor_type;location;lat;lon;timestamp;P1;durP1;ratioP1;P2;durP2;ratioP2
78453;SDS011;67750;55.832;49.124;2023-08-17T00:01:28;12.00;;;7.62;;
78453;SDS011;67750;55.832;49.124;2023-08-17T00:03:58;11.00;;;7.97;;
78453;SDS011;67750;55.832;49.124;2023-08-17T00:06:27;11.85;;;7.90;;
78453;SDS011;67750;55.832;49.124;2023-08-17T00:08:57;9.95;;;7.90;;
78453;SDS011;67750;55.832;49.124;2023-08-17T00:11:26;10.65;;;8.25;;
78453;SDS011;67750;55.832;49.124;2023-08-17T00:13:56;10.63;;;7.90;;
78453;SDS011;67750;55.832;49.124;2023-08-17T00:16:25;12.20;;;7.97;;
78453;SDS011;67750;55.832;49.124;2023-08-17T00:18:55;11.48;;;8.50;;
78453;SDS011;67750;55.832;49.124;2023-08-17T00:21:24;9.83;;;8.10;;
78453;SDS011;67750;55.832;49.124;2023-08-17T00:23:54;10.40;;;8.00;;
78453;SDS011;67750;55.832;49.124;2023-08-17T00:26:23;11.03;;;8.45;;
78453;SDS011;67750;55.832;49.124;2023-08-17T00:28:55;10.00;;;7.90;;
78453;SDS011;67750;55.832;49.124;2023-08-17T00:31:25;10.35;;;7.62;;
78453;SDS011;67750;55.832;49.124;2023-08-17T00:33:54;12.78;;;8.08;;
78453;SDS011;67750;55.832;49.124;2023-08-17T00:36:24;11.10;;;8.40;;
78453;SDS011;67750;55.832;49.124;2023-08-17T00:38:53;10.18;;;8.03;;
78453;SDS011;67750;55.832;49.124;2023-08-17T00:41:23;9.70;;;8.00;;
78453;SDS011;67750;55.832;49.124;2023-08-17T00:43:52;10.05;;;8.30;;
78453;SDS011;67750;55.832;49.124;2023-08-17T00:46:24;10.85;;;8.03;;
78453;SDS011;67750;55.832;49.124;2023-08-17T00:48:55;11.93;;;8.50;;
78453;SDS011;67750;55.832;49.124;2023-08-17T00:51:26;10.88;;;8.00;;
78453;SDS011;67750;55.832;49.124;2023-08-17T00:53:57;9.85;;;8.13;;
78453;SDS011;67750;55.832;49.124;2023-08-17T00:56:27;9.75;;;7.75;;
78453;SDS011;67750;55.832;49.124;2023-08-17T00:58:57;10.78;;;8.20;;
78453;SDS011;67750;55.832;49.124;2023-08-17T01:01:27;13.70;;;7.92;;
78453;SDS011;67750;55.832;49.124;2023-08-17T01:03:57;11.83;;;8.35;;
78453;SDS011;67750;55.832;49.124;2023-08-17T01:06:26;10.80;;;8.23;;
78453;SDS011;67750;55.832;49.124;2023-08-17T01:08:56;12.13;;;8.08;;
78453;SDS011;67750;55.832;49.124;2023-08-17T01:19:55;12.37;;;8.28;;
78453;SDS011;67750;55.832;49.124;2023-08-17T01:22:25;14.47;;;8.23;;
78453;SDS011;67750;55.832;49.124;2023-08-17T01:24:55;10.40;;;8.13;;
78453;SDS011;67750;55.832;49.124;2023-08-17T01:27:25;11.10;;;8.15;;
78453;SDS011;67750;55.832;49.124;2023-08-17T01:29:54;12.50;;;8.85;;
78453;SDS011;67750;55.832;49.124;2023-08-17T01:38:07;12.33;;;8.65;;
78453;SDS011;67750;55.832;49.124;2023-08-17T01:40:37;11.28;;;8.73;;
78453;SDS011;67750;55.832;49.124;2023-08-17T01:43:06;10.93;;;8.15;;
78453;SDS011;67750;55.832;49.124;2023-08-17T01:45:37;14.00;;;8.25;;
78453;SDS011;67750;55.832;49.124;2023-08-17T01:48:06;10.50;;;8.25;;
78453;SDS011;67750;55.832;49.124;2023-08-17T01:50:37;13.60;;;8.65;;
78453;SDS011;67750;55.832;49.124;2023-08-17T01:53:06;11.48;;;8.53;;
78453;SDS011;67750;55.832;49.124;2023-08-17T01:55:36;13.35;;;9.03;;
78453;SDS011;67750;55.832;49.124;2023-08-17T01:58:06;11.70;;;8.90;;
78453;SDS011;67750;55.832;49.124;2023-08-17T02:00:36;10.23;;;8.25;;
78453;SDS011;67750;55.832;49.124;2023-08-17T02:03:06;10.38;;;8.13;;
78453;SDS011;67750;55.832;49.124;2023-08-17T02:05:35;11.43;;;8.43;;
78453;SDS011;67750;55.832;49.124;2023-08-17T02:08:05;11.88;;;9.00;;
78453;SDS011;67750;55.832;49.124;2023-08-17T02:10:34;14.23;;;8.33;;
78453;SDS011;67750;55.832;49.124;2023-08-17T02:13:04;12.78;;;8.38;;
78453;SDS011;67750;55.832;49.124;2023-08-17T02:15:37;9.08;;;7.90;;
78453;SDS011;67750;55.832;49.124;2023-08-17T02:18:05;12.20;;;7.87;;
78453;SDS011;67750;55.832;49.124;2023-08-17T02:20:35;11.80;;;7.62;;
78453;SDS011;67750;55.832;49.124;2023-08-17T02:23:04;12.45;;;8.18;;
78453;SDS011;67750;55.832;49.124;2023-08-17T02:25:37;8.60;;;7.47;;
78453;SDS011;67750;55.832;49.124;2023-08-17T02:28:05;10.98;;;8.20;;
78453;SDS011;67750;55.832;49.124;2023-08-17T02:30:35;8.73;;;7.58;;
78453;SDS011;67750;55.832;49.124;2023-08-17T02:33:04;12.45;;;7.90;;
78453;SDS011;67750;55.832;49.124;2023-08-17T02:35:34;13.95;;;8.10;;
78453;SDS011;67750;55.832;49.124;2023-08-17T02:38:03;10.58;;;7.55;;
78453;SDS011;67750;55.832;49.124;2023-08-17T02:40:33;11.95;;;7.58;;
78453;SDS011;67750;55.832;49.124;2023-08-17T02:43:02;16.42;;;7.97;;
78453;SDS011;67750;55.832;49.124;2023-08-17T02:45:33;11.80;;;7.72;;
78453;SDS011;67750;55.832;49.124;2023-08-17T02:48:04;10.65;;;7.87;;
78453;SDS011;67750;55.832;49.124;2023-08-17T02:50:34;9.65;;;8.23;;
78453;SDS011;67750;55.832;49.124;2023-08-17T02:53:03;12.13;;;7.72;;
78453;SDS011;67750;55.832;49.124;2023-08-17T02:55:33;11.10;;;7.35;;
78453;SDS011;67750;55.832;49.124;2023-08-17T02:58:02;11.95;;;7.78;;
78453;SDS011;67750;55.832;49.124;2023-08-17T03:00:32;19.15;;;10.15;;
78453;SDS011;67750;55.832;49.124;2023-08-17T03:03:02;11.20;;;8.68;;
78453;SDS011;67750;55.832;49.124;2023-08-17T03:05:31;13.88;;;8.63;;
78453;SDS011;67750;55.832;49.124;2023-08-17T03:08:01;11.73;;;8.30;;
78453;SDS011;67750;55.832;49.124;2023-08-17T03:10:30;9.70;;;7.75;;
78453;SDS011;67750;55.832;49.124;2023-08-17T03:13:00;13.45;;;7.65;;
78453;SDS011;67750;55.832;49.124;2023-08-17T03:15:30;9.78;;;8.00;;
78453;SDS011;67750;55.832;49.124;2023-08-17T03:18:00;12.53;;;7.37;;
78453;SDS011;67750;55.832;49.124;2023-08-17T03:20:29;9.70;;;6.95;;
78453;SDS011;67750;55.832;49.124;2023-08-17T03:22:59;10.20;;;7.03;;
78453;SDS011;67750;55.832;49.124;2023-08-17T03:25:28;10.00;;;7.05;;
78453;SDS011;67750;55.832;49.124;2023-08-17T03:27:59;12.23;;;6.70;;
78453;SDS011;67750;55.832;49.124;2023-08-17T03:30:28;9.60;;;6.78;;
78453;SDS011;67750;55.832;49.124;2023-08-17T03:32:58;12.03;;;7.45;;
78453;SDS011;67750;55.832;49.124;2023-08-17T03:35:29;12.25;;;6.47;;
78453;SDS011;67750;55.832;49.124;2023-08-17T03:37:59;9.08;;;6.67;;
78453;SDS011;67750;55.832;49.124;2023-08-17T03:40:29;10.93;;;7.80;;
78453;SDS011;67750;55.832;49.124;2023-08-17T03:43:00;10.08;;;7.50;;
78453;SDS011;67750;55.832;49.124;2023-08-17T03:45:30;12.40;;;7.90;;
78453;SDS011;67750;55.832;49.124;2023-08-17T03:48:00;12.07;;;7.62;;
78453;SDS011;67750;55.832;49.124;2023-08-17T03:50:29;11.22;;;8.23;;
78453;SDS011;67750;55.832;49.124;2023-08-17T03:52:59;13.40;;;8.33;;
78453;SDS011;67750;55.832;49.124;2023-08-17T03:55:28;14.43;;;8.28;;
78453;SDS011;67750;55.832;49.124;2023-08-17T03:57:58;11.30;;;7.45;;
78453;SDS011;67750;55.832;49.124;2023-08-17T04:00:28;15.23;;;8.50;;
78453;SDS011;67750;55.832;49.124;2023-08-17T04:02:58;11.85;;;7.60;;
78453;SDS011;67750;55.832;49.124;2023-08-17T04:05:27;11.83;;;7.40;;
78453;SDS011;67750;55.832;49.124;2023-08-17T04:07:57;13.40;;;8.03;;
78453;SDS011;67750;55.832;49.124;2023-08-17T04:10:29;8.68;;;7.65;;
78453;SDS011;67750;55.832;49.124;2023-08-17T04:12:59;10.05;;;7.53;;
78453;SDS011;67750;55.832;49.124;2023-08-17T04:15:29;13.72;;;7.35;;
78453;SDS011;67750;55.832;49.124;2023-08-17T04:17:59;8.60;;;6.78;;
78453;SDS011;67750;55.832;49.124;2023-08-17T04:20:28;9.45;;;7.45;;
78453;SDS011;67750;55.832;49.124;2023-08-17T04:22:58;11.22;;;7.75;;
78453;SDS011;67750;55.832;49.124;2023-08-17T04:25:27;9.25;;;7.42;;
78453;SDS011;67750;55.832;49.124;2023-08-17T04:27:57;12.65;;;7.40;;
78453;SDS011;67750;55.832;49.124;2023-08-17T04:30:26;11.93;;;7.17;;
78453;SDS011;67750;55.832;49.124;2023-08-17T04:32:58;12.00;;;7.80;;
78453;SDS011;67750;55.832;49.124;2023-08-17T04:35:27;11.75;;;7.50;;
78453;SDS011;67750;55.832;49.124;2023-08-17T04:37:57;9.65;;;7.28;;
78453;SDS011;67750;55.832;49.124;2023-08-17T04:40:27;11.75;;;7.92;;
78453;SDS011;67750;55.832;49.124;2023-08-17T04:42:57;12.15;;;7.65;;
78453;SDS011;67750;55.832;49.124;2023-08-17T04:45:27;9.55;;;7.50;;
78453;SDS011;67750;55.832;49.124;2023-08-17T04:47:56;14.10;;;8.30;;
78453;SDS011;67750;55.832;49.124;2023-08-17T04:50:26;13.45;;;7.50;;
78453;SDS011;67750;55.832;49.124;2023-08-17T04:52:55;12.80;;;8.18;;
78453;SDS011;67750;55.832;49.124;2023-08-17T04:55:25;13.48;;;7.97;;
78453;SDS011;67750;55.832;49.124;2023-08-17T04:57:55;11.22;;;8.20;;
78453;SDS011;67750;55.832;49.124;2023-08-17T05:00:24;9.33;;;7.28;;
78453;SDS011;67750;55.832;49.124;2023-08-17T05:03:13;11.97;;;7.75;;
78453;SDS011;67750;55.832;49.124;2023-08-17T05:05:43;11.50;;;7.50;;
78453;SDS011;67750;55.832;49.124;2023-08-17T05:08:14;13.85;;;7.95;;
78453;SDS011;67750;55.832;49.124;2023-08-17T05:10:43;10.40;;;7.80;;
78453;SDS011;67750;55.832;49.124;2023-08-17T05:13:13;11.15;;;8.00;;
78453;SDS011;67750;55.832;49.124;2023-08-17T05:15:43;10.18;;;7.90;;
78453;SDS011;67750;55.832;49.124;2023-08-17T05:18:14;14.43;;;8.10;;
78453;SDS011;67750;55.832;49.124;2023-08-17T05:20:44;17.17;;;8.50;;
78453;SDS011;67750;55.832;49.124;2023-08-17T05:23:13;14.25;;;7.58;;
78453;SDS011;67750;55.832;49.124;2023-08-17T05:25:45;15.43;;;7.87;;
78453;SDS011;67750;55.832;49.124;2023-08-17T05:28:14;11.53;;;7.60;;
78453;SDS011;67750;55.832;49.124;2023-08-17T05:30:44;13.15;;;8.15;;
78453;SDS011;67750;55.832;49.124;2023-08-17T05:33:13;10.32;;;7.25;;
78453;SDS011;67750;55.832;49.124;2023-08-17T05:35:43;11.63;;;8.00;;
78453;SDS011;67750;55.832;49.124;2023-08-17T05:38:13;14.43;;;7.37;;
78453;SDS011;67750;55.832;49.124;2023-08-17T05:40:43;11.35;;;8.25;;
78453;SDS011;67750;55.832;49.124;2023-08-17T05:43:12;11.20;;;7.97;;
78453;SDS011;67750;55.832;49.124;2023-08-17T05:45:42;10.68;;;7.70;;
78453;SDS011;67750;55.832;49.124;2023-08-17T05:48:11;11.90;;;7.55;;
78453;SDS011;67750;55.832;49.124;2023-08-17T05:50:41;12.55;;;7.80;;
78453;SDS011;67750;55.832;49.124;2023-08-17T05:53:11;11.33;;;7.65;;
78453;SDS011;67750;55.832;49.124;2023-08-17T05:55:40;12.13;;;8.38;;
78453;SDS011;67750;55.832;49.124;2023-08-17T05:58:10;10.25;;;7.10;;
78453;SDS011;67750;55.832;49.124;2023-08-17T06:00:39;12.30;;;7.40;;
78453;SDS011;67750;55.832;49.124;2023-08-17T06:03:09;16.95;;;8.05;;
78453;SDS011;67750;55.832;49.124;2023-08-17T06:05:39;11.18;;;7.47;;
78453;SDS011;67750;55.832;49.124;2023-08-17T06:08:09;13.53;;;7.72;;
78453;SDS011;67750;55.832;49.124;2023-08-17T06:10:38;16.02;;;8.38;;
78453;SDS011;67750;55.832;49.124;2023-08-17T06:13:08;13.08;;;7.95;;
78453;SDS011;67750;55.832;49.124;2023-08-17T06:15:37;15.70;;;8.20;;
78453;SDS011;67750;55.832;49.124;2023-08-17T06:18:07;14.50;;;7.45;;
78453;SDS011;67750;55.832;49.124;2023-08-17T06:20:36;13.98;;;7.85;;
78453;SDS011;67750;55.832;49.124;2023-08-17T06:23:06;19.30;;;8.30;;
78453;SDS011;67750;55.832;49.124;2023-08-17T06:25:35;12.35;;;8.00;;
78453;SDS011;67750;55.832;49.124;2023-08-17T06:28:05;13.53;;;7.83;;
78453;SDS011;67750;55.832;49.124;2023-08-17T06:30:35;13.45;;;7.75;;
78453;SDS011;67750;55.832;49.124;2023-08-17T06:33:04;14.78;;;8.33;;
78453;SDS011;67750;55.832;49.124;2023-08-17T06:35:34;12.35;;;8.23;;
78453;SDS011;67750;55.832;49.124;2023-08-17T06:38:03;12.05;;;7.75;;
78453;SDS011;67750;55.832;49.124;2023-08-17T06:40:33;19.73;;;8.00;;
78453;SDS011;67750;55.832;49.124;2023-08-17T06:43:03;14.05;;;7.22;;
78453;SDS011;67750;55.832;49.124;2023-08-17T06:45:32;11.85;;;7.45;;
78453;SDS011;67750;55.832;49.124;2023-08-17T06:48:02;14.83;;;7.97;;
78453;SDS011;67750;55.832;49.124;2023-08-17T06:50:32;12.20;;;7.58;;
78453;SDS011;67750;55.832;49.124;2023-08-17T06:53:01;12.70;;;6.83;;
78453;SDS011;67750;55.832;49.124;2023-08-17T06:55:31;13.20;;;7.65;;
78453;SDS011;67750;55.832;49.124;2023-08-17T06:58:01;13.35;;;6.83;;
78453;SDS011;67750;55.832;49.124;2023-08-17T07:00:30;13.35;;;7.17;;
78453;SDS011;67750;55.832;49.124;2023-08-17T07:03:01;10.53;;;6.72;;
78453;SDS011;67750;55.832;49.124;2023-08-17T07:05:31;10.32;;;7.12;;
78453;SDS011;67750;55.832;49.124;2023-08-17T07:08:01;10.50;;;7.28;;
78453;SDS011;67750;55.832;49.124;2023-08-17T07:10:31;11.15;;;6.97;;
78453;SDS011;67750;55.832;49.124;2023-08-17T07:13:00;10.25;;;7.03;;
78453;SDS011;67750;55.832;49.124;2023-08-17T07:15:30;11.65;;;6.72;;
78453;SDS011;67750;55.832;49.124;2023-08-17T07:20:30;11.05;;;6.50;;
78453;SDS011;67750;55.832;49.124;2023-08-17T07:22:59;10.70;;;6.28;;
78453;SDS011;67750;55.832;49.124;2023-08-17T07:25:29;10.72;;;6.58;;
78453;SDS011;67750;55.832;49.124;2023-08-17T07:28:00;13.03;;;7.17;;
78453;SDS011;67750;55.832;49.124;2023-08-17T07:30:29;8.93;;;6.47;;
78453;SDS011;67750;55.832;49.124;2023-08-17T07:32:59;11.70;;;6.62;;
78453;SDS011;67750;55.832;49.124;2023-08-17T07:35:28;10.60;;;6.28;;
78453;SDS011;67750;55.832;49.124;2023-08-17T07:37:58;10.10;;;6.33;;
78453;SDS011;67750;55.832;49.124;2023-08-17T07:40:27;8.68;;;6.17;;
78453;SDS011;67750;55.832;49.124;2023-08-17T07:42:57;10.70;;;5.67;;
78453;SDS011;67750;55.832;49.124;2023-08-17T07:45:26;10.05;;;6.55;;
78453;SDS011;67750;55.832;49.124;2023-08-17T07:47:56;9.68;;;5.62;;
78453;SDS011;67750;55.832;49.124;2023-08-17T07:50:25;9.50;;;6.15;;
78453;SDS011;67750;55.832;49.124;2023-08-17T07:52:55;10.95;;;5.67;;
78453;SDS011;67750;55.832;49.124;2023-08-17T07:55:25;9.80;;;5.75;;
78453;SDS011;67750;55.832;49.124;2023-08-17T07:57:55;10.20;;;5.90;;
78453;SDS011;67750;55.832;49.124;2023-08-17T08:00:24;9.75;;;5.62;;
78453;SDS011;67750;55.832;49.124;2023-08-17T08:02:54;13.68;;;5.95;;
78453;SDS011;67750;55.832;49.124;2023-08-17T08:05:23;10.68;;;5.90;;
78453;SDS011;67750;55.832;49.124;2023-08-17T08:07:53;8.30;;;5.83;;
78453;SDS011;67750;55.832;49.124;2023-08-17T08:10:23;9.78;;;5.35;;
78453;SDS011;67750;55.832;49.124;2023-08-17T08:12:52;8.85;;;5.60;;
78453;SDS011;67750;55.832;49.124;2023-08-17T08:15:22;6.50;;;5.03;;
78453;SDS011;67750;55.832;49.124;2023-08-17T08:17:51;8.88;;;5.17;;
78453;SDS011;67750;55.832;49.124;2023-08-17T08:20:21;14.53;;;5.22;;
78453;SDS011;67750;55.832;49.124;2023-08-17T08:22:50;11.50;;;5.62;;
78453;SDS011;67750;55.832;49.124;2023-08-17T08:25:20;13.18;;;5.10;;
78453;SDS011;67750;55.832;49.124;2023-08-17T08:27:49;12.58;;;4.70;;
78453;SDS011;67750;55.832;49.124;2023-08-17T08:30:19;8.30;;;5.00;;
78453;SDS011;67750;55.832;49.124;2023-08-17T08:32:49;8.88;;;4.75;;
78453;SDS011;67750;55.832;49.124;2023-08-17T08:35:19;7.72;;;4.58;;
78453;SDS011;67750;55.832;49.124;2023-08-17T08:37:49;9.75;;;4.83;;
78453;SDS011;67750;55.832;49.124;2023-08-17T08:40:19;8.38;;;4.80;;
78453;SDS011;67750;55.832;49.124;2023-08-17T08:42:48;8.10;;;4.83;;
78453;SDS011;67750;55.832;49.124;2023-08-17T08:45:18;10.25;;;4.60;;
78453;SDS011;67750;55.832;49.124;2023-08-17T08:47:48;8.58;;;4.37;;
78453;SDS011;67750;55.832;49.124;2023-08-17T08:50:18;8.20;;;4.25;;
78453;SDS011;67750;55.832;49.124;2023-08-17T08:53:22;8.98;;;4.15;;
78453;SDS011;67750;55.832;49.124;2023-08-17T08:55:22;7.85;;;4.72;;
78453;SDS011;67750;55.832;49.124;2023-08-17T08:57:52;6.83;;;5.05;;
78453;SDS011;67750;55.832;49.124;2023-08-17T09:00:23;7.97;;;4.37;;
78453;SDS011;67750;55.832;49.124;2023-08-17T09:02:53;7.35;;;4.60;;
78453;SDS011;67750;55.832;49.124;2023-08-17T09:05:24;7.03;;;4.05;;
78453;SDS011;67750;55.832;49.124;2023-08-17T09:07:54;7.55;;;4.58;;
78453;SDS011;67750;55.832;49.124;2023-08-17T09:10:25;7.42;;;4.40;;
78453;SDS011;67750;55.832;49.124;2023-08-17T09:12:55;5.55;;;4.22;;
78453;SDS011;67750;55.832;49.124;2023-08-17T09:15:24;7.03;;;4.00;;
78453;SDS011;67750;55.832;49.124;2023-08-17T09:17:54;6.72;;;4.10;;
78453;SDS011;67750;55.832;49.124;2023-08-17T09:26:05;9.10;;;4.50;;
78453;SDS011;67750;55.832;49.124;2023-08-17T09:28:34;5.67;;;4.55;;
78453;SDS011;67750;55.832;49.124;2023-08-17T09:31:05;10.75;;;6.67;;
78453;SDS011;67750;55.832;49.124;2023-08-17T09:33:34;6.28;;;4.30;;
78453;SDS011;67750;55.832;49.124;2023-08-17T09:36:04;7.62;;;4.20;;
78453;SDS011;67750;55.832;49.124;2023-08-17T09:38:33;6.22;;;4.62;;
78453;SDS011;67750;55.832;49.124;2023-08-17T09:41:03;8.10;;;4.05;;
78453;SDS011;67750;55.832;49.124;2023-08-17T09:43:33;6.17;;;3.95;;
78453;SDS011;67750;55.832;49.124;2023-08-17T09:46:03;5.53;;;3.95;;
78453;SDS011;67750;55.832;49.124;2023-08-17T09:48:34;11.15;;;4.30;;
78453;SDS011;67750;55.832;49.124;2023-08-17T09:51:04;10.50;;;3.80;;
78453;SDS011;67750;55.832;49.124;2023-08-17T09:53:35;7.33;;;3.95;;
78453;SDS011;67750;55.832;49.124;2023-08-17T09:56:05;9.40;;;4.10;;
78453;SDS011;67750;55.832;49.124;2023-08-17T09:58:38;6.75;;;4.15;;
78453;SDS011;67750;55.832;49.124;2023-08-17T10:01:07;7.70;;;3.70;;
78453;SDS011;67750;55.832;49.124;2023-08-17T10:03:39;5.90;;;4.33;;
78453;SDS011;67750;55.832;49.124;2023-08-17T10:06:11;8.93;;;4.47;;
78453;SDS011;67750;55.832;49.124;2023-08-17T10:08:42;8.85;;;5.50;;
78453;SDS011;67750;55.832;49.124;2023-08-17T10:24:42;6.55;;;4.00;;
78453;SDS011;67750;55.832;49.124;2023-08-17T10:27:12;5.40;;;4.22;;
78453;SDS011;67750;55.832;49.124;2023-08-17T10:29:42;5.35;;;4.08;;
78453;SDS011;67750;55.832;49.124;2023-08-17T10:32:12;5.50;;;4.20;;
78453;SDS011;67750;55.832;49.124;2023-08-17T10:34:42;8.23;;;4.00;;
78453;SDS011;67750;55.832;49.124;2023-08-17T10:42:33;7.03;;;4.20;;
78453;SDS011;67750;55.832;49.124;2023-08-17T10:50:58;8.43;;;4.30;;
78453;SDS011;67750;55.832;49.124;2023-08-17T10:53:15;7.05;;;4.03;;
78453;SDS011;67750;55.832;49.124;2023-08-17T10:55:45;4.85;;;4.00;;
78453;SDS011;67750;55.832;49.124;2023-08-17T10:58:35;6.87;;;4.45;;
78453;SDS011;67750;55.832;49.124;2023-08-17T11:01:04;8.10;;;4.97;;
78453;SDS011;67750;55.832;49.124;2023-08-17T11:03:34;6.67;;;4.25;;
78453;SDS011;67750;55.832;49.124;2023-08-17T11:08:54;10.32;;;4.30;;
78453;SDS011;67750;55.832;49.124;2023-08-17T11:11:24;7.60;;;4.53;;
78453;SDS011;67750;55.832;49.124;2023-08-17T11:13:53;11.08;;;5.10;;
78453;SDS011;67750;55.832;49.124;2023-08-17T11:16:23;6.42;;;4.20;;
78453;SDS011;67750;55.832;49.124;2023-08-17T11:18:53;8.23;;;4.15;;
78453;SDS011;67750;55.832;49.124;2023-08-17T11:21:24;10.65;;;4.40;;
78453;SDS011;67750;55.832;49.124;2023-08-17T11:23:55;6.10;;;4.50;;
78453;SDS011;67750;55.832;49.124;2023-08-17T11:26:25;11.08;;;5.20;;
78453;SDS011;67750;55.832;49.124;2023-08-17T11:28:56;10.08;;;4.35;;
78453;SDS011;67750;55.832;49.124;2023-08-17T11:31:25;8.90;;;4.28;;
78453;SDS011;67750;55.832;49.124;2023-08-17T11:33:55;10.05;;;4.72;;
78453;SDS011;67750;55.832;49.124;2023-08-17T11:36:26;6.67;;;4.30;;
78453;SDS011;67750;55.832;49.124;2023-08-17T11:38:57;7.85;;;4.33;;
78453;SDS011;67750;55.832;49.124;2023-08-17T11:44:18;7.62;;;4.45;;
78453;SDS011;67750;55.832;49.124;2023-08-17T11:49:17;6.90;;;4.33;;
78453;SDS011;67750;55.832;49.124;2023-08-17T11:51:51;4.92;;;4.20;;
78453;SDS011;67750;55.832;49.124;2023-08-17T11:54:20;5.60;;;3.85;;
78453;SDS011;67750;55.832;49.124;2023-08-17T11:56:50;5.60;;;4.20;;
78453;SDS011;67750;55.832;49.124;2023-08-17T11:59:19;6.40;;;3.85;;
78453;SDS011;67750;55.832;49.124;2023-08-17T12:01:49;13.28;;;4.50;;
78453;SDS011;67750;55.832;49.124;2023-08-17T12:04:20;5.53;;;3.90;;
78453;SDS011;67750;55.832;49.124;2023-08-17T12:06:50;9.15;;;4.40;;
78453;SDS011;67750;55.832;49.124;2023-08-17T12:09:19;7.03;;;3.50;;
78453;SDS011;67750;55.832;49.124;2023-08-17T12:11:54;5.25;;;4.12;;
78453;SDS011;67750;55.832;49.124;2023-08-17T12:14:22;6.42;;;3.77;;
78453;SDS011;67750;55.832;49.124;2023-08-17T12:16:51;8.00;;;4.10;;
78453;SDS011;67750;55.832;49.124;2023-08-17T12:19:21;4.17;;;3.65;;
78453;SDS011;67750;55.832;49.124;2023-08-17T12:21:51;5.00;;;3.50;;
78453;SDS011;67750;55.832;49.124;2023-08-17T12:24:23;6.78;;;3.62;;
78453;SDS011;67750;55.832;49.124;2023-08-17T12:26:51;8.88;;;4.47;;
78453;SDS011;67750;55.832;49.124;2023-08-17T12:29:21;9.00;;;4.10;;
78453;SDS011;67750;55.832;49.124;2023-08-17T12:31:51;7.72;;;3.83;;
78453;SDS011;67750;55.832;49.124;2023-08-17T12:34:21;6.78;;;3.83;;
78453;SDS011;67750;55.832;49.124;2023-08-17T12:36:50;5.08;;;3.80;;
78453;SDS011;67750;55.832;49.124;2023-08-17T12:39:20;6.30;;;3.80;;
78453;SDS011;67750;55.832;49.124;2023-08-17T12:41:49;5.47;;;3.70;;
78453;SDS011;67750;55.832;49.124;2023-08-17T12:44:19;7.33;;;3.70;;
78453;SDS011;67750;55.832;49.124;2023-08-17T12:46:48;7.47;;;3.85;;
78453;SDS011;67750;55.832;49.124;2023-08-17T12:49:18;5.15;;;3.70;;
78453;SDS011;67750;55.832;49.124;2023-08-17T12:51:47;6.17;;;3.50;;
78453;SDS011;67750;55.832;49.124;2023-08-17T12:54:17;7.37;;;4.00;;
78453;SDS011;67750;55.832;49.124;2023-08-17T12:56:46;6.40;;;3.87;;
78453;SDS011;67750;55.832;49.124;2023-08-17T12:59:16;4.12;;;3.50;;
78453;SDS011;67750;55.832;49.124;2023-08-17T13:01:45;7.00;;;4.00;;
78453;SDS011;67750;55.832;49.124;2023-08-17T13:04:15;5.70;;;4.33;;
78453;SDS011;67750;55.832;49.124;2023-08-17T13:06:44;6.17;;;4.25;;
78453;SDS011;67750;55.832;49.124;2023-08-17T13:09:14;5.15;;;3.80;;
78453;SDS011;67750;55.832;49.124;2023-08-17T13:11:45;6.55;;;4.05;;
78453;SDS011;67750;55.832;49.124;2023-08-17T13:14:15;7.05;;;3.75;;
78453;SDS011;67750;55.832;49.124;2023-08-17T13:16:45;10.90;;;3.58;;
78453;SDS011;67750;55.832;49.124;2023-08-17T13:19:14;8.10;;;3.80;;
78453;SDS011;67750;55.832;49.124;2023-08-17T13:21:44;5.20;;;3.77;;
78453;SDS011;67750;55.832;49.124;2023-08-17T13:24:13;6.78;;;3.85;;
78453;SDS011;67750;55.832;49.124;2023-08-17T13:26:43;5.85;;;3.37;;
78453;SDS011;67750;55.832;49.124;2023-08-17T13:29:12;7.08;;;4.05;;
78453;SDS011;67750;55.832;49.124;2023-08-17T13:31:42;5.72;;;3.90;;
78453;SDS011;67750;55.832;49.124;2023-08-17T13:34:11;7.00;;;3.40;;
78453;SDS011;67750;55.832;49.124;2023-08-17T13:36:41;11.55;;;3.85;;
78453;SDS011;67750;55.832;49.124;2023-08-17T13:39:11;5.97;;;3.70;;
78453;SDS011;67750;55.832;49.124;2023-08-17T13:41:40;5.80;;;4.45;;
78453;SDS011;67750;55.832;49.124;2023-08-17T13:44:10;10.38;;;4.45;;
78453;SDS011;67750;55.832;49.124;2023-08-17T13:46:39;6.35;;;3.40;;
78453;SDS011;67750;55.832;49.124;2023-08-17T13:49:09;6.85;;;3.67;;
78453;SDS011;67750;55.832;49.124;2023-08-17T13:51:38;9.30;;;3.87;;
78453;SDS011;67750;55.832;49.124;2023-08-17T13:54:08;9.73;;;3.92;;
78453;SDS011;67750;55.832;49.124;2023-08-17T13:56:38;6.17;;;3.98;;
78453;SDS011;67750;55.832;49.124;2023-08-17T13:59:07;13.98;;;4.00;;
78453;SDS011;67750;55.832;49.124;2023-08-17T14:01:37;9.43;;;4.55;;
78453;SDS011;67750;55.832;49.124;2023-08-17T14:04:06;5.08;;;3.83;;
78453;SDS011;67750;55.832;49.124;2023-08-17T14:06:38;8.98;;;3.98;;
78453;SDS011;67750;55.832;49.124;2023-08-17T14:09:08;5.25;;;4.00;;
78453;SDS011;67750;55.832;49.124;2023-08-17T14:11:37;6.75;;;4.03;;
78453;SDS011;67750;55.832;49.124;2023-08-17T14:14:07;12.45;;;4.45;;
78453;SDS011;67750;55.832;49.124;2023-08-17T14:16:36;15.48;;;5.92;;
78453;SDS011;67750;55.832;49.124;2023-08-17T14:19:06;6.12;;;4.20;;
78453;SDS011;67750;55.832;49.124;2023-08-17T14:21:35;7.47;;;4.10;;
78453;SDS011;67750;55.832;49.124;2023-08-17T14:24:05;11.78;;;5.10;;
78453;SDS011;67750;55.832;49.124;2023-08-17T14:26:35;9.25;;;5.03;;
78453;SDS011;67750;55.832;49.124;2023-08-17T14:29:04;11.45;;;5.37;;
78453;SDS011;67750;55.832;49.124;2023-08-17T14:31:35;9.25;;;5.22;;
78453;SDS011;67750;55.832;49.124;2023-08-17T14:34:05;9.83;;;5.37;;
78453;SDS011;67750;55.832;49.124;2023-08-17T14:36:36;9.18;;;5.15;;
78453;SDS011;67750;55.832;49.124;2023-08-17T14:39:05;8.70;;;5.00;;
78453;SDS011;67750;55.832;49.124;2023-08-17T14:41:35;5.97;;;4.62;;
78453;SDS011;67750;55.832;49.124;2023-08-17T14:44:05;6.78;;;4.90;;
78453;SDS011;67750;55.832;49.124;2023-08-17T14:46:34;10.53;;;5.35;;
78453;SDS011;67750;55.832;49.124;2023-08-17T14:49:06;7.42;;;4.97;;
78453;SDS011;67750;55.832;49.124;2023-08-17T14:54:25;10.43;;;5.10;;
78453;SDS011;67750;55.832;49.124;2023-08-17T14:56:54;12.13;;;4.95;;
78453;SDS011;67750;55.832;49.124;2023-08-17T14:59:24;9.63;;;5.37;;
78453;SDS011;67750;55.832;49.124;2023-08-17T15:01:54;8.45;;;4.72;;
78453;SDS011;67750;55.832;49.124;2023-08-17T15:04:24;7.95;;;5.30;;
78453;SDS011;67750;55.832;49.124;2023-08-17T15:06:54;12.50;;;4.70;;
78453;SDS011;67750;55.832;49.124;2023-08-17T15:09:23;10.98;;;5.25;;
78453;SDS011;67750;55.832;49.124;2023-08-17T15:11:54;6.83;;;5.58;;
78453;SDS011;67750;55.832;49.124;2023-08-17T15:14:24;7.67;;;5.30;;
78453;SDS011;67750;55.832;49.124;2023-08-17T15:16:53;9.50;;;5.72;;
78453;SDS011;67750;55.832;49.124;2023-08-17T15:19:23;15.55;;;5.87;;
78453;SDS011;67750;55.832;49.124;2023-08-17T15:21:52;7.42;;;5.28;;
78453;SDS011;67750;55.832;49.124;2023-08-17T15:24:22;8.48;;;5.00;;
78453;SDS011;67750;55.832;49.124;2023-08-17T15:26:52;11.38;;;5.75;;
78453;SDS011;67750;55.832;49.124;2023-08-17T15:29:21;11.83;;;6.53;;
78453;SDS011;67750;55.832;49.124;2023-08-17T15:31:51;8.75;;;5.70;;
78453;SDS011;67750;55.832;49.124;2023-08-17T15:34:20;9.65;;;5.40;;
78453;SDS011;67750;55.832;49.124;2023-08-17T15:36:50;8.08;;;5.70;;
78453;SDS011;67750;55.832;49.124;2023-08-17T15:39:20;9.15;;;5.30;;
78453;SDS011;67750;55.832;49.124;2023-08-17T15:41:49;5.90;;;5.17;;